Time;durP1;ratioP1;P1;durP2;ratioP2;P2;SDS_P1;SDS_P2;PMS_P1;PMS_P2;Temp;Humidity;BMP_temperature;BMP_pressure;BME280_temperature;BME280_humidity;BME280_pressure;Samples;Min_cycle;Max_cycle;Signal;HPM_P1;HPM_P2
2022/11/10 00:00:31;;;;;;;90.10;53.47;;;;;;;9.93;89.80;100263.78;5072052;28;20188;-63
2022/11/10 00:03:00;;;;;;;89.97;51.77;;;;;;;9.88;90.39;100263.44;5072647;28;20281;-63
2022/11/10 00:05:27;;;;;;;93.03;52.00;;;;;;;9.91;89.80;100269.25;5072255;28;20200;-64
2022/11/10 00:07:54;;;;;;;87.00;51.33;;;;;;;9.84;89.12;100260.31;5072121;28;20200;-63
2022/11/10 00:10:20;;;;;;;95.33;54.00;;;;;;;9.87;89.04;100269.75;5072220;28;20191;-63
2022/11/10 00:12:48;;;;;;;84.27;50.07;;;;;;;9.88;89.62;100266.94;5076433;28;20263;-63
2022/11/10 00:18:01;;;;;;;88.03;51.60;;;;;;;9.85;88.83;100258.50;5071723;28;20235;-63
2022/11/10 00:20:28;;;;;;;85.20;50.37;;;;;;;9.84;89.46;100262.97;5071995;28;20269;-63
2022/11/10 00:22:55;;;;;;;82.13;50.27;;;;;;;9.84;90.16;100257.66;5071572;28;20219;-63
2022/11/10 00:25:23;;;;;;;84.73;49.50;;;;;;;9.79;90.74;100260.00;5072038;28;20279;-63
2022/11/10 00:27:51;;;;;;;84.00;48.87;;;;;;;9.76;90.01;100259.53;5071623;28;20641;-63
2022/11/10 00:30:18;;;;;;;87.40;50.10;;;;;;;9.69;89.53;100261.22;5085909;28;20277;-63
2022/11/10 00:32:46;;;;;;;87.60;48.87;;;;;;;9.66;90.74;100251.78;5091800;28;20695;-63
2022/11/10 00:35:13;;;;;;;75.70;46.37;;;;;;;9.66;90.58;100254.44;5092147;28;20226;-63
2022/11/10 00:37:40;;;;;;;76.87;48.60;;;;;;;9.60;89.75;100254.28;5092075;28;20194;-63
2022/11/10 00:40:07;;;;;;;79.70;48.13;;;;;;;9.51;90.14;100245.53;5091944;28;20248;-63
2022/11/10 00:42:34;;;;;;;83.07;48.33;;;;;;;9.49;90.42;100247.53;5091546;28;20219;-63
2022/11/10 00:45:02;;;;;;;79.20;47.07;;;;;;;9.43;90.71;100252.66;5091919;28;20627;-63
2022/11/10 00:47:29;;;;;;;73.77;48.37;;;;;;;9.45;90.21;100251.53;5091980;28;20340;-63
2022/11/10 00:49:55;;;;;;;78.00;49.30;;;;;;;9.43;90.75;100248.19;5091505;28;20625;-63
2022/11/10 00:52:22;;;;;;;77.53;47.60;;;;;;;9.48;89.57;100245.06;5092248;28;20191;-63
2022/11/10 00:54:49;;;;;;;83.10;47.73;;;;;;;9.54;89.73;100244.34;5091501;28;20225;-63
2022/11/10 00:57:15;;;;;;;77.37;47.30;;;;;;;9.59;89.72;100242.00;5091885;28;20651;-63
2022/11/10 00:59:42;;;;;;;83.63;48.67;;;;;;;9.61;89.19;100237.38;5091801;28;20264;-65
2022/11/10 01:02:10;;;;;;;73.93;46.50;;;;;;;9.66;88.81;100248.28;5093176;28;20218;-63
2022/11/10 01:04:37;;;;;;;77.47;47.60;;;;;;;9.66;88.79;100242.97;5091829;28;20245;-63
2022/11/10 01:07:03;;;;;;;84.80;48.73;;;;;;;9.65;88.11;100241.34;5091673;28;20244;-64
2022/11/10 01:09:30;;;;;;;70.23;44.30;;;;;;;9.63;88.58;100240.66;5091836;28;20195;-63
2022/11/10 01:11:57;;;;;;;72.57;45.83;;;;;;;9.64;89.09;100239.69;5091352;28;20221;-63
2022/11/10 01:14:23;;;;;;;79.13;46.53;;;;;;;9.62;88.68;100241.66;5073526;28;20745;-64
2022/11/10 01:16:50;;;;;;;77.23;47.27;;;;;;;9.64;89.23;100239.69;5084427;28;20272;-63
2022/11/10 01:19:18;;;;;;;76.30;46.73;;;;;;;9.63;89.16;100233.53;5088831;28;20225;-64
2022/11/10 01:21:45;;;;;;;82.87;47.97;;;;;;;9.63;88.38;100244.16;5073559;28;20223;-63
2022/11/10 01:24:11;;;;;;;78.27;47.13;;;;;;;9.62;88.22;100242.50;5074666;28;20544;-64
2022/11/10 01:26:38;;;;;;;78.83;46.37;;;;;;;9.62;88.66;100241.66;5074560;28;20253;-63
2022/11/10 01:29:05;;;;;;;92.57;47.10;;;;;;;9.61;88.24;100245.31;5079469;28;20184;-63
2022/11/10 01:31:31;;;;;;;71.73;46.33;;;;;;;9.57;88.38;100233.41;5095167;28;20257;-63
2022/11/10 01:33:59;;;;;;;71.63;44.50;;;;;;;9.57;88.96;100236.91;5095379;28;20194;-63
2022/11/10 01:36:27;;;;;;;73.57;44.60;;;;;;;9.54;88.30;100234.56;5094670;28;20675;-63
2022/11/10 01:38:54;;;;;;;74.23;44.87;;;;;;;9.53;88.16;100232.09;5095512;28;20207;-63
2022/11/10 01:41:20;;;;;;;72.33;45.73;;;;;;;9.48;88.30;100229.13;5094833;28;20248;-63
2022/11/10 01:43:47;;;;;;;75.80;44.80;;;;;;;9.43;88.96;100244.72;5094615;28;20196;-63
2022/11/10 01:46:14;;;;;;;70.10;45.00;;;;;;;9.29;89.55;100234.81;5094820;28;20282;-63
2022/11/10 01:48:45;;;;;;;75.10;46.13;;;;;;;9.08;89.62;100235.38;5094519;28;20192;-63
2022/11/10 01:51:18;;;;;;;69.63;44.17;;;;;;;9.03;90.14;100234.22;5094411;28;20187;-63
2022/11/10 01:53:50;;;;;;;71.93;43.97;;;;;;;9.00;90.58;100235.38;5095072;28;20192;-63
2022/11/10 01:56:18;;;;;;;66.53;42.20;;;;;;;9.02;90.22;100237.84;5094693;28;20245;-63
2022/11/10 01:58:50;;;;;;;68.23;43.57;;;;;;;9.04;90.48;100235.88;5095407;28;20220;-63
2022/11/10 02:01:17;;;;;;;71.43;43.73;;;;;;;9.07;89.61;100240.84;5094253;28;20677;-63
2022/11/10 02:03:49;;;;;;;73.37;43.97;;;;;;;9.14;89.41;100233.84;5094858;28;20195;-63
2022/11/10 02:06:17;;;;;;;71.30;45.00;;;;;;;9.18;89.33;100233.34;5094545;28;20240;-64
2022/11/10 02:08:47;;;;;;;67.20;42.10;;;;;;;9.21;89.05;100226.88;5093842;28;20227;-65
2022/11/10 02:11:14;;;;;;;66.23;43.90;;;;;;;9.25;88.21;100231.69;5094351;28;20195;-64
2022/11/10 02:13:41;;;;;;;68.93;44.20;;;;;;;9.20;89.37;100236.66;5081946;28;20218;-64
2022/11/10 02:16:08;;;;;;;70.40;42.17;;;;;;;9.12;88.76;100233.19;5073672;28;20249;-64
2022/11/10 02:18:36;;;;;;;70.10;43.43;;;;;;;9.06;89.05;100234.69;5074207;28;20184;-63
2022/11/10 02:21:05;;;;;;;68.03;43.67;;;;;;;9.01;89.64;100238.84;5073499;28;20621;-64
2022/11/10 02:23:45;;;;;;;66.00;43.90;;;;;;;8.99;91.08;100244.31;5073666;28;20360;-63
2022/11/10 02:26:14;;;;;;;68.70;42.00;;;;;;;8.95;89.73;100242.19;5073923;28;20223;-63
2022/11/10 02:28:40;;;;;;;69.70;43.03;;;;;;;8.91;90.03;100244.31;5073967;28;20196;-64
2022/11/10 02:31:08;;;;;;;68.47;43.30;;;;;;;8.95;90.71;100247.47;5092618;28;20621;-63
2022/11/10 02:33:35;;;;;;;65.23;41.97;;;;;;;8.91;90.04;100251.44;5093911;28;20282;-63
2022/11/10 02:36:02;;;;;;;65.53;43.93;;;;;;;8.87;90.32;100244.84;5094812;28;20191;-63
2022/11/10 02:38:30;;;;;;;70.07;44.13;;;;;;;8.87;91.20;100250.13;5076763;28;20354;-63
2022/11/10 02:40:57;;;;;;;70.03;43.53;;;;;;;8.89;91.06;100253.44;5093363;28;20199;-63
2022/11/10 02:43:23;;;;;;;64.20;42.50;;;;;;;8.92;90.24;100253.94;5093019;28;20214;-63
2022/11/10 02:45:50;;;;;;;68.83;42.47;;;;;;;9.00;90.98;100255.75;5094223;28;20248;-65
2022/11/10 02:48:17;;;;;;;70.67;42.10;;;;;;;9.03;89.90;100255.41;5093539;28;20199;-63
2022/11/10 02:50:43;;;;;;;68.33;42.50;;;;;;;9.05;90.20;100261.34;5093272;28;20195;-63
2022/11/10 02:53:10;;;;;;;68.87;43.73;;;;;;;9.07;89.76;100262.03;5093198;28;20230;-63
2022/11/10 02:55:38;;;;;;;59.40;42.27;;;;;;;9.08;89.58;100263.69;5093459;28;20252;-63
2022/11/10 02:58:06;;;;;;;67.07;42.83;;;;;;;9.11;89.44;100273.97;5093097;28;20724;-63
2022/11/10 03:00:32;;;;;;;70.37;43.97;;;;;;;9.09;89.11;100270.63;5093832;28;20566;-63
2022/11/10 03:03:01;;;;;;;73.47;42.70;;;;;;;9.08;89.72;100268.97;5092902;28;20249;-63
2022/11/10 03:05:28;;;;;;;74.77;41.63;;;;;;;9.05;89.37;100269.31;5093374;28;20276;-63
2022/11/10 03:07:55;;;;;;;68.43;42.47;;;;;;;9.01;88.95;100268.00;5093288;28;20621;-63
2022/11/10 03:10:22;;;;;;;74.03;42.73;;;;;;;9.02;89.10;100269.63;5094128;28;20191;-63
2022/11/10 03:12:54;;;;;;;68.87;40.83;;;;;;;8.97;90.93;100269.31;5088091;28;20679;-63
2022/11/10 03:15:21;;;;;;;58.23;39.67;;;;;;;8.89;90.06;100275.47;5072525;28;20184;-63
2022/11/10 03:17:47;;;;;;;60.93;41.70;;;;;;;8.79;91.41;100268.66;5072733;28;20232;-64
2022/11/10 03:20:14;;;;;;;66.37;42.63;;;;;;;8.79;90.89;100261.53;5072432;28;20656;-64
2022/11/10 03:22:41;;;;;;;61.90;41.17;;;;;;;8.75;90.79;100270.00;5072312;28;20265;-64
2022/11/10 03:25:09;;;;;;;66.40;42.50;;;;;;;8.70;90.67;100257.25;5072640;28;20257;-64
2022/11/10 03:27:36;;;;;;;66.33;40.60;;;;;;;8.74;91.56;100266.50;5072993;28;20237;-63
2022/11/10 03:30:05;;;;;;;61.93;40.07;;;;;;;8.71;90.54;100261.56;5084597;28;20271;-64
2022/11/10 03:32:32;;;;;;;61.40;41.37;;;;;;;8.63;90.71;100255.44;5092407;28;20248;-63
2022/11/10 03:34:58;;;;;;;65.90;40.93;;;;;;;8.69;92.51;100257.41;5092828;28;20275;-64
2022/11/10 03:37:25;;;;;;;63.13;40.10;;;;;;;8.74;92.20;100265.69;5092893;28;20601;-63
2022/11/10 03:39:52;;;;;;;61.63;39.47;;;;;;;8.79;91.51;100263.38;5092422;28;20187;-64
2022/11/10 03:42:18;;;;;;;57.80;38.80;;;;;;;8.82;90.74;100261.22;5092248;28;20219;-64
2022/11/10 03:44:45;;;;;;;61.63;39.00;;;;;;;8.84;90.30;100248.66;5092204;28;20666;-65
2022/11/10 03:47:13;;;;;;;57.20;38.03;;;;;;;8.88;90.87;100255.25;5092505;28;20274;-63
2022/11/10 03:49:40;;;;;;;60.67;39.57;;;;;;;8.91;90.54;100256.75;5092886;28;20199;-63
2022/11/10 03:52:06;;;;;;;59.17;39.47;;;;;;;8.94;90.83;100256.44;5092430;28;20252;-63
2022/11/10 03:54:33;;;;;;;60.43;40.07;;;;;;;8.92;89.93;100259.25;5092497;28;20191;-63
2022/11/10 03:57:00;;;;;;;59.97;38.87;;;;;;;8.93;89.76;100254.75;5092083;28;20252;-63
2022/11/10 03:59:26;;;;;;;62.93;38.87;;;;;;;8.96;90.49;100259.72;5092145;28;20336;-63
2022/11/10 04:01:53;;;;;;;57.90;38.73;;;;;;;8.98;89.46;100260.38;5092554;28;20187;-63
2022/11/10 04:09:49;;;;;;;58.23;37.87;;;;;;;8.92;89.17;100259.25;5092112;28;20622;-63
2022/11/10 04:17:48;;;;;;;62.77;39.53;;;;;;;8.86;89.00;100253.78;5072001;28;20230;-63
2022/11/10 04:20:17;;;;;;;56.00;37.30;;;;;;;8.85;89.34;100260.06;5071439;28;20188;-63
2022/11/10 04:25:27;;;;;;;60.17;38.10;;;;;;;8.79;89.40;100260.72;5074373;28;20185;-67
2022/11/10 04:27:54;;;;;;;61.67;38.80;;;;;;;8.84;90.52;100266.34;5071593;28;20222;-63
2022/11/10 04:30:20;;;;;;;63.43;38.27;;;;;;;8.84;90.28;100271.66;5085980;28;20674;-63
2022/11/10 04:32:47;;;;;;;62.67;39.83;;;;;;;8.81;90.26;100277.28;5092068;28;20248;-64
2022/11/10 04:35:14;;;;;;;54.37;38.33;;;;;;;8.80;89.57;100272.97;5092088;28;20191;-64
2022/11/10 04:37:42;;;;;;;55.30;38.17;;;;;;;8.79;89.10;100276.63;5091999;28;20195;-65
2022/11/10 04:40:09;;;;;;;60.00;38.03;;;;;;;8.71;89.65;100264.22;5091800;28;20282;-64
2022/11/10 04:42:39;;;;;;;69.47;39.47;;;;;;;8.69;89.30;100278.59;5086349;28;20215;-64
2022/11/10 04:45:07;;;;;;;55.40;37.53;;;;;;;8.58;89.53;100276.28;5079981;28;20191;-63
2022/11/10 04:47:33;;;;;;;58.43;37.30;;;;;;;8.48;90.23;100278.25;5087493;28;20187;-63
2022/11/10 04:50:00;;;;;;;65.90;38.63;;;;;;;8.42;90.55;100279.72;5086887;28;20320;-64
2022/11/10 04:52:27;;;;;;;64.83;37.70;;;;;;;8.46;90.85;100282.88;5091539;28;20199;-64
2022/11/10 04:54:55;;;;;;;63.60;38.20;;;;;;;8.47;89.66;100288.03;5076830;28;20745;-63
2022/11/10 04:57:21;;;;;;;61.57;38.33;;;;;;;8.51;89.58;100288.50;5075864;28;20199;-64
2022/11/10 04:59:48;;;;;;;64.83;37.87;;;;;;;8.55;89.73;100292.50;5089865;28;20195;-63
2022/11/10 05:02:15;;;;;;;63.13;38.57;;;;;;;8.52;90.22;100298.94;5094675;28;20619;-65
2022/11/10 05:04:42;;;;;;;65.27;36.90;;;;;;;8.51;89.03;100293.81;5093806;28;20191;-64
2022/11/10 05:07:08;;;;;;;73.90;38.57;;;;;;;8.51;89.21;100291.16;5093678;28;20196;-63
2022/11/10 05:09:35;;;;;;;64.87;36.80;;;;;;;8.51;89.29;100285.88;5095001;28;20195;-64
2022/11/10 05:12:03;;;;;;;72.47;40.33;;;;;;;8.50;89.93;100292.97;5094111;28;20735;-65
2022/11/10 05:14:30;;;;;;;67.70;37.47;;;;;;;8.52;89.18;100292.81;5095074;28;20285;-63
2022/11/10 05:16:57;;;;;;;68.03;37.50;;;;;;;8.45;89.41;100297.94;5081090;28;20223;-63
2022/11/10 05:19:23;;;;;;;60.47;37.10;;;;;;;8.41;90.09;100296.59;5075038;28;20193;-63
2022/11/10 05:21:50;;;;;;;69.83;42.30;;;;;;;8.42;90.19;100294.78;5074636;28;20210;-65
2022/11/10 05:24:17;;;;;;;75.10;43.13;;;;;;;8.40;89.85;100288.81;5073707;28;20699;-63
2022/11/10 05:26:43;;;;;;;93.40;48.30;;;;;;;8.41;88.35;100306.38;5075343;28;20196;-64
2022/11/10 05:29:11;;;;;;;63.63;37.80;;;;;;;8.37;89.81;100305.84;5074880;28;20210;-63
2022/11/10 05:31:38;;;;;;;63.80;40.40;;;;;;;8.39;89.97;100308.34;5074577;28;20733;-63
2022/11/10 05:34:05;;;;;;;58.47;34.67;;;;;;;8.36;90.23;100313.94;5074368;28;20626;-64
2022/11/10 05:36:31;;;;;;;54.10;34.73;;;;;;;8.35;89.33;100309.66;5074357;28;20218;-64
2022/11/10 05:38:58;;;;;;;52.47;32.83;;;;;;;8.36;90.08;100316.59;5089457;28;20672;-65
2022/11/10 05:41:25;;;;;;;50.73;36.20;;;;;;;8.37;90.44;100321.72;5086519;28;20194;-65
2022/11/10 05:43:51;;;;;;;54.67;35.90;;;;;;;8.46;91.42;100319.94;5093705;28;20275;-65
2022/11/10 05:46:19;;;;;;;54.30;35.03;;;;;;;8.55;91.66;100329.56;5091494;28;20208;-64
2022/11/10 05:48:47;;;;;;;59.33;33.53;;;;;;;8.60;89.71;100329.88;5095083;28;20221;-64
2022/11/10 05:51:14;;;;;;;48.73;32.93;;;;;;;8.56;89.02;100341.81;5094282;28;20264;-63
2022/11/10 05:53:40;;;;;;;61.20;35.80;;;;;;;8.52;89.28;100340.47;5094879;28;20203;-63
2022/11/10 05:56:07;;;;;;;56.83;37.40;;;;;;;8.54;89.23;100346.44;5094829;28;20188;-64
2022/11/10 05:58:34;;;;;;;67.80;36.63;;;;;;;8.55;88.32;100350.75;5093953;28;20188;-63
2022/11/10 06:01:01;;;;;;;77.27;51.23;;;;;;;8.65;90.77;100346.13;5093623;28;20245;-66
2022/11/10 06:03:29;;;;;;;77.10;50.77;;;;;;;8.83;89.96;100349.47;5093442;28;20219;-66
2022/11/10 06:05:55;;;;;;;77.77;53.90;;;;;;;8.91;87.23;100358.22;5094356;28;20195;-65
2022/11/10 06:08:22;;;;;;;82.50;46.23;;;;;;;8.99;87.30;100360.09;5094183;28;20192;-64
2022/11/10 06:10:49;;;;;;;71.57;40.00;;;;;;;9.25;87.44;100366.03;5094790;28;20198;-64
2022/11/10 06:13:16;;;;;;;64.83;34.67;;;;;;;9.41;86.48;100360.72;5086483;28;20255;-65
2022/11/10 06:15:43;;;;;;;57.00;32.23;;;;;;;9.70;85.47;100367.16;5073584;28;20667;-64
2022/11/10 06:18:09;;;;;;;50.03;29.70;;;;;;;9.81;83.92;100365.97;5074422;28;20235;-64
2022/11/10 06:20:37;;;;;;;44.63;29.67;;;;;;;9.91;84.13;100370.09;5073432;28;20249;-64
2022/11/10 06:23:06;;;;;;;47.17;31.23;;;;;;;10.13;83.32;100373.88;5073943;28;20224;-64
2022/11/10 06:25:34;;;;;;;46.57;29.63;;;;;;;10.37;82.20;100366.63;5073531;28;20204;-64
2022/11/10 06:28:02;;;;;;;44.30;30.77;;;;;;;10.39;81.34;100372.59;5073237;28;20253;-65
2022/11/10 06:30:29;;;;;;;44.17;28.23;;;;;;;10.58;82.01;100387.28;5088824;28;20199;-65
2022/11/10 06:32:56;;;;;;;43.77;29.63;;;;;;;10.65;80.09;100383.75;5093480;28;20610;-64
2022/11/10 06:35:23;;;;;;;46.73;29.30;;;;;;;10.84;79.82;100385.13;5093798;28;20188;-65
2022/11/10 06:38:03;;;;;;;46.63;29.20;;;;;;;10.98;78.85;100387.84;5093892;28;20188;-64
2022/11/10 06:40:30;;;;;;;37.57;27.97;;;;;;;10.94;77.15;100393.69;5093934;28;20187;-65
2022/11/10 06:42:58;;;;;;;43.30;29.97;;;;;;;10.91;77.12;100391.41;5093606;28;20228;-65
2022/11/10 06:45:27;;;;;;;46.40;28.70;;;;;;;11.07;78.22;100389.44;5093586;28;20191;-64
2022/11/10 06:47:59;;;;;;;44.77;28.17;;;;;;;11.30;76.22;100392.09;5093616;28;20623;-65
2022/11/10 06:50:26;;;;;;;46.80;28.27;;;;;;;11.48;75.95;100395.28;5093253;28;20245;-64
2022/11/10 06:52:56;;;;;;;45.73;28.07;;;;;;;11.78;75.79;100399.66;5093126;28;20652;-65
2022/11/10 06:55:25;;;;;;;50.80;28.47;;;;;;;12.08;73.70;100409.31;5093758;28;20182;-64
2022/11/10 06:57:51;;;;;;;44.47;27.87;;;;;;;12.27;71.70;100414.13;5092602;28;20207;-65
2022/11/10 07:00:19;;;;;;;40.23;26.10;;;;;;;12.62;76.37;100397.34;5093319;28;20196;-73
2022/11/10 07:02:45;;;;;;;25.43;18.83;;;;;;;13.85;89.82;100380.91;5092725;28;20252;-79
2022/11/10 07:05:14;;;;;;;28.83;20.87;;;;;;;14.70;82.42;100382.19;5093608;28;20197;-73
2022/11/10 07:07:40;;;;;;;28.23;21.63;;;;;;;15.59;71.93;100406.66;5075669;28;20269;-70
2022/11/10 07:10:08;;;;;;;31.30;22.97;;;;;;;16.11;70.64;100404.94;5090840;28;20252;-64
2022/11/10 07:12:36;;;;;;;31.57;21.30;;;;;;;16.82;67.80;100414.66;5089657;28;20187;-64
2022/11/10 07:15:03;;;;;;;35.03;22.80;;;;;;;17.18;59.92;100426.44;5092367;28;20199;-65
2022/11/10 07:17:29;;;;;;;34.30;24.93;;;;;;;16.73;57.56;100415.91;5089659;28;20708;-65
2022/11/10 07:19:56;;;;;;;40.63;25.90;;;;;;;16.41;58.38;100409.66;5092772;28;20632;-65
2022/11/10 07:22:23;;;;;;;51.53;28.37;;;;;;;16.25;60.07;100407.38;5078251;28;20253;-70
2022/11/10 07:24:50;;;;;;;38.60;26.07;;;;;;;15.98;59.73;100405.81;5072356;28;20216;-68
2022/11/10 07:27:17;;;;;;;40.37;25.87;;;;;;;16.05;61.27;100408.47;5073884;28;20225;-75
2022/11/10 07:29:45;;;;;;;39.63;27.63;;;;;;;16.17;61.33;100398.75;5093011;28;20187;-73
2022/11/10 07:32:11;;;;;;;35.73;22.00;;;;;;;16.27;66.62;100394.63;5092165;28;20683;-73
2022/11/10 07:34:38;;;;;;;30.23;20.57;;;;;;;16.48;66.81;100390.84;5092741;28;20280;-72
2022/11/10 07:37:05;;;;;;;38.63;28.23;;;;;;;17.10;58.05;100412.41;5083371;28;20191;-71
2022/11/10 07:39:31;;;;;;;42.40;29.03;;;;;;;17.12;57.00;100415.72;5071307;28;20199;-74
2022/11/10 07:41:58;;;;;;;40.00;27.90;;;;;;;17.04;56.77;100413.28;5070557;28;20664;-66
2022/11/10 07:44:26;;;;;;;45.00;26.97;;;;;;;17.11;58.06;100416.78;5072643;28;20332;-73
2022/11/10 07:46:54;;;;;;;49.17;29.80;;;;;;;17.22;58.90;100408.84;5092107;28;20662;-72
2022/11/10 07:49:21;;;;;;;47.03;29.40;;;;;;;17.05;57.48;100410.41;5088978;28;20256;-72
2022/11/10 07:51:47;;;;;;;45.03;29.10;;;;;;;17.00;60.02;100409.41;5092473;28;20197;-72
2022/11/10 07:54:14;;;;;;;48.83;30.50;;;;;;;17.10;59.06;100405.19;5092549;28;20195;-72
2022/11/10 07:56:41;;;;;;;52.80;30.57;;;;;;;17.14;57.71;100402.91;5092647;28;20187;-73
2022/11/10 07:59:08;;;;;;;37.63;27.53;;;;;;;17.21;58.30;100414.44;5092266;28;20198;-72
2022/11/10 08:01:34;;;;;;;50.30;31.83;;;;;;;17.33;58.55;100413.53;5091892;28;20250;-75
2022/11/10 08:04:02;;;;;;;44.17;28.97;;;;;;;17.58;60.48;100408.19;5080417;28;20293;-72
2022/11/10 08:06:29;;;;;;;53.27;31.13;;;;;;;17.86;57.69;100403.22;5071689;28;20196;-72
2022/11/10 08:08:56;;;;;;;44.57;32.73;;;;;;;18.04;55.82;100412.13;5071839;28;20254;-68
2022/11/10 08:11:22;;;;;;;45.07;31.33;;;;;;;18.32;57.17;100408.94;5081882;28;20280;-69
2022/11/10 08:13:49;;;;;;;49.63;31.97;;;;;;;18.56;56.12;100416.16;5091550;28;20200;-70
2022/11/10 08:16:17;;;;;;;47.60;32.07;;;;;;;18.18;55.87;100410.13;5089725;28;20197;-70
2022/11/10 08:18:44;;;;;;;47.93;31.77;;;;;;;17.98;57.60;100401.44;5082461;28;20570;-72
2022/11/10 08:21:12;;;;;;;42.90;30.47;;;;;;;18.16;57.72;100410.34;5080153;28;20187;-73
2022/11/10 08:23:39;;;;;;;46.57;32.43;;;;;;;18.35;56.90;100420.13;5080385;28;20249;-73
2022/11/10 08:26:06;;;;;;;44.43;32.50;;;;;;;18.40;56.08;100408.69;5082784;28;20192;-73
2022/11/10 08:28:32;;;;;;;52.07;31.47;;;;;;;18.48;58.32;100409.22;5078898;28;20230;-74
2022/11/10 08:31:02;;;;;;;43.57;31.67;;;;;;;18.52;56.79;100415.78;5095727;28;20276;-72
2022/11/10 08:33:29;;;;;;;45.87;32.27;;;;;;;18.35;56.13;100413.91;5092522;28;20679;-73
2022/11/10 08:35:55;;;;;;;45.00;31.87;;;;;;;18.09;56.81;100414.16;5084586;28;20619;-69
2022/11/10 08:38:24;;;;;;;50.00;30.77;;;;;;;17.87;57.78;100418.28;5085627;28;20195;-69
2022/11/10 08:40:51;;;;;;;43.10;30.50;;;;;;;17.69;60.00;100410.19;5083327;28;20188;-70
2022/11/10 08:43:18;;;;;;;45.43;30.60;;;;;;;17.68;58.30;100411.25;5077961;28;20200;-69
2022/11/10 08:45:45;;;;;;;46.73;30.73;;;;;;;17.68;58.68;100406.66;5084182;28;20553;-69
2022/11/10 08:48:14;;;;;;;50.33;33.00;;;;;;;17.84;58.47;100416.88;5085355;28;20192;-69
2022/11/10 08:50:41;;;;;;;41.23;30.40;;;;;;;17.83;59.09;100403.63;5086330;28;20188;-69
2022/11/10 08:53:11;;;;;;;47.80;30.87;;;;;;;17.72;57.76;100404.38;5084957;28;20191;-68
2022/11/10 08:55:39;;;;;;;53.20;31.60;;;;;;;17.65;58.56;100406.28;5084946;28;20186;-68
2022/11/10 08:58:07;;;;;;;42.40;30.60;;;;;;;17.59;58.63;100402.59;5084154;28;20249;-69
2022/11/10 09:00:34;;;;;;;45.63;31.30;;;;;;;17.68;58.40;100397.81;5084793;28;20223;-70
2022/11/10 09:03:06;;;;;;;65.43;29.87;;;;;;;17.69;58.68;100399.44;5086163;28;20633;-69
2022/11/10 09:05:34;;;;;;;58.53;28.50;;;;;;;17.81;57.77;100395.78;5085175;28;20216;-68
2022/11/10 09:08:01;;;;;;;39.07;27.47;;;;;;;17.88;57.56;100385.81;5083882;28;20199;-69
2022/11/10 09:10:28;;;;;;;46.17;28.00;;;;;;;17.71;57.75;100394.66;5085743;28;20249;-69
2022/11/10 09:12:59;;;;;;;46.40;28.53;;;;;;;17.73;58.49;100387.22;5085138;28;20728;-68
2022/11/10 09:15:26;;;;;;;44.77;26.40;;;;;;;17.94;57.82;100395.69;5083255;28;20190;-69
2022/11/10 09:17:52;;;;;;;37.57;26.63;;;;;;;18.21;56.97;100393.56;5085033;28;20227;-69
2022/11/10 09:20:19;;;;;;;43.83;26.90;;;;;;;18.52;56.20;100390.75;5086957;28;20195;-68
2022/11/10 09:22:46;;;;;;;36.40;27.37;;;;;;;18.73;55.09;100384.88;5094786;28;20187;-68
2022/11/10 09:25:13;;;;;;;45.97;27.60;;;;;;;18.75;55.24;100377.41;5095452;28;20276;-71
2022/11/10 09:27:39;;;;;;;38.63;28.33;;;;;;;18.87;54.19;100386.38;5094624;28;20314;-71
2022/11/10 09:30:09;;;;;;;34.83;21.90;;;;;;;18.97;54.28;100392.00;5082654;28;20253;-69
2022/11/10 09:32:36;;;;;;;30.70;21.93;;;;;;;19.39;59.39;100374.81;5089387;28;20204;-69
2022/11/10 09:35:04;;;;;;;29.53;22.87;;;;;;;20.01;54.72;100384.97;5079172;28;20203;-68
2022/11/10 09:37:31;;;;;;;32.67;24.73;;;;;;;20.40;51.54;100381.53;5074627;28;20218;-70
2022/11/10 09:39:57;;;;;;;28.80;22.30;;;;;;;20.82;52.35;100382.94;5073893;28;20809;-69
2022/11/10 09:42:29;;;;;;;31.97;23.87;;;;;;;21.17;48.93;100383.66;5074295;28;20200;-71
2022/11/10 09:45:00;;;;;;;26.57;21.70;;;;;;;21.27;50.61;100375.72;5080149;28;20256;-73
2022/11/10 09:47:36;;;;;;;33.90;24.27;;;;;;;21.08;47.70;100382.41;5094712;28;20187;-71
2022/11/10 09:50:06;;;;;;;25.70;20.90;;;;;;;21.16;50.21;100382.00;5094381;28;20678;-70
2022/11/10 09:52:36;;;;;;;30.70;22.77;;;;;;;21.50;49.44;100372.88;5094475;28;20645;-68
2022/11/10 09:55:15;;;;;;;34.07;27.03;;;;;;;21.43;46.73;100374.91;5083761;28;20208;-67
2022/11/10 09:57:43;;;;;;;36.53;26.33;;;;;;;21.11;46.94;100360.28;5074471;28;20271;-68
2022/11/10 10:00:13;;;;;;;34.67;26.17;;;;;;;20.75;48.31;100365.25;5074312;28;20192;-72
2022/11/10 10:02:48;;;;;;;35.77;27.03;;;;;;;20.20;49.29;100373.00;5073977;28;20245;-71
2022/11/10 10:05:40;;;;;;;40.50;27.27;;;;;;;19.80;50.24;100355.88;5074096;28;20290;-70
2022/11/10 10:08:10;;;;;;;35.60;26.27;;;;;;;19.60;51.11;100377.00;5073880;28;20220;-71
2022/11/10 10:10:41;;;;;;;45.27;29.20;;;;;;;19.53;52.15;100366.28;5075225;28;20279;-74
2022/11/10 10:13:27;;;;;;;41.23;28.93;;;;;;;19.56;51.31;100365.03;5093998;28;20188;-72
2022/11/10 10:16:06;;;;;;;55.73;29.87;;;;;;;19.66;52.20;100360.72;5085280;28;20687;-68
2022/11/10 10:18:44;;;;;;;43.20;28.47;;;;;;;19.83;51.33;100355.41;5075922;28;20204;-68
2022/11/10 10:21:21;;;;;;;39.03;26.83;;;;;;;19.87;50.63;100341.25;5094334;28;20670;-72
2022/11/10 10:23:51;;;;;;;38.43;26.40;;;;;;;19.87;51.08;100343.94;5093766;28;20194;-72
2022/11/10 10:26:23;;;;;;;35.40;24.70;;;;;;;19.59;51.76;100342.97;5094166;28;20249;-69
2022/11/10 10:28:51;;;;;;;48.43;26.77;;;;;;;19.35;52.76;100331.38;5092351;28;20248;-70
2022/11/10 10:31:20;;;;;;;40.07;27.13;;;;;;;19.14;53.59;100333.75;5078320;28;20229;-70
2022/11/10 10:33:49;;;;;;;35.33;25.97;;;;;;;19.15;54.32;100320.06;5091748;28;20199;-71
2022/11/10 10:36:19;;;;;;;42.67;28.20;;;;;;;19.35;53.59;100319.75;5091700;28;20197;-70
2022/11/10 10:38:50;;;;;;;36.87;27.57;;;;;;;19.54;52.80;100313.22;5092521;28;20273;-70
2022/11/10 10:41:23;;;;;;;39.33;27.30;;;;;;;19.64;52.91;100316.16;5093027;28;20183;-70
2022/11/10 10:43:53;;;;;;;41.27;26.87;;;;;;;19.84;52.00;100308.50;5092502;28;20215;-71
2022/11/10 10:46:25;;;;;;;36.23;25.70;;;;;;;20.03;51.97;100312.72;5093969;28;20275;-72
2022/11/10 10:49:12;;;;;;;36.60;26.50;;;;;;;20.17;51.23;100314.13;5093554;28;20193;-71
2022/11/10 10:51:39;;;;;;;34.93;25.63;;;;;;;20.03;50.94;100313.56;5092550;28;20222;-71
2022/11/10 10:54:23;;;;;;;38.80;26.97;;;;;;;20.06;51.46;100306.84;5093689;28;20327;-70
2022/11/10 10:56:50;;;;;;;66.10;28.67;;;;;;;20.09;51.31;100309.91;5093057;28;20714;-71
2022/11/10 10:59:22;;;;;;;35.53;26.53;;;;;;;20.14;51.00;100304.63;5093465;28;20549;-71
2022/11/10 11:01:53;;;;;;;37.97;26.77;;;;;;;20.06;50.79;100306.84;5094329;28;20191;-71
2022/11/10 11:04:30;;;;;;;35.70;25.90;;;;;;;20.00;51.79;100281.66;5092884;28;20297;-71
2022/11/10 11:06:59;;;;;;;41.10;27.20;;;;;;;20.11;51.66;100280.00;5093477;28;20556;-71
2022/11/10 11:09:28;;;;;;;38.53;26.47;;;;;;;20.18;51.68;100288.81;5093793;28;20203;-71
2022/11/10 11:12:04;;;;;;;41.17;26.47;;;;;;;20.35;52.27;100295.09;5093021;28;20219;-70
2022/11/10 11:14:32;;;;;;;34.13;26.37;;;;;;;20.49;54.24;100285.63;5093198;28;20245;-69
2022/11/10 11:17:01;;;;;;;31.50;25.47;;;;;;;20.65;50.47;100301.06;5078451;28;20707;-69
2022/11/10 11:19:31;;;;;;;36.50;26.90;;;;;;;20.72;50.16;100296.34;5082768;28;20195;-71
2022/11/10 11:22:34;;;;;;;35.23;25.53;;;;;;;20.74;49.52;100294.19;5092873;28;20187;-69
2022/11/10 11:25:10;;;;;;;36.23;25.97;;;;;;;20.71;49.90;100297.41;5093287;28;20639;-70
2022/11/10 11:27:43;;;;;;;36.83;26.43;;;;;;;20.79;49.30;100293.50;5092776;28;20188;-69
2022/11/10 11:30:20;;;;;;;36.67;27.07;;;;;;;20.72;49.71;100285.53;5080778;28;20245;-68
2022/11/10 11:33:01;;;;;;;38.17;25.47;;;;;;;20.52;50.68;100285.16;5072423;28;20183;-69
2022/11/10 11:35:39;;;;;;;36.20;26.90;;;;;;;20.55;49.87;100284.69;5072461;28;20625;-68